sensor_id;sensor_type;location;lat;lon;timestamp;pressure;altitude;pressure_sealevel;temperature;humidity
38718;BME280;24468;52.128;9.278;2024-01-16T00:00:08;99520.22;;;2.04;100.00
38718;BME280;24468;52.128;9.278;2024-01-16T00:02:34;99523.06;;;1.96;100.00
38718;BME280;24468;52.128;9.278;2024-01-16T00:05:00;99532.00;;;1.92;100.00
38718;BME280;24468;52.128;9.278;2024-01-16T00:07:25;99522.81;;;2.05;100.00
38718;BME280;24468;52.128;9.278;2024-01-16T00:09:51;99523.94;;;2.31;100.00
38718;BME280;24468;52.128;9.278;2024-01-16T00:12:19;99544.28;;;1.97;100.00
38718;BME280;24468;52.128;9.278;2024-01-16T00:14:44;99537.03;;;2.04;100.00
38718;BME280;24468;52.128;9.278;2024-01-16T00:17:10;99544.16;;;2.04;100.00
38718;BME280;24468;52.128;9.278;2024-01-16T00:19:36;99554.72;;;2.07;100.00
38718;BME280;24468;52.128;9.278;2024-01-16T00:22:02;99564.13;;;2.20;100.00
38718;BME280;24468;52.128;9.278;2024-01-16T00:24:30;99556.00;;;2.25;100.00
38718;BME280;24468;52.128;9.278;2024-01-16T00:26:56;99555.78;;;2.34;100.00
38718;BME280;24468;52.128;9.278;2024-01-16T00:29:21;99559.34;;;2.33;100.00
38718;BME280;24468;52.128;9.278;2024-01-16T00:31:47;99570.94;;;1.96;100.00
38718;BME280;24468;52.128;9.278;2024-01-16T00:34:12;99574.13;;;2.10;100.00
38718;BME280;24468;52.128;9.278;2024-01-16T00:36:38;99567.41;;;1.95;100.00
38718;BME280;24468;52.128;9.278;2024-01-16T00:39:03;99583.13;;;2.05;100.00
38718;BME280;24468;52.128;9.278;2024-01-16T00:41:29;99574.53;;;1.95;100.00
38718;BME280;24468;52.128;9.278;2024-01-16T00:43:54;99574.72;;;1.87;100.00
38718;BME280;24468;52.128;9.278;2024-01-16T00:46:20;99577.81;;;2.05;100.00
38718;BME280;24468;52.128;9.278;2024-01-16T00:48:46;99588.59;;;1.61;100.00
38718;BME280;24468;52.128;9.278;2024-01-16T00:51:12;99592.28;;;1.55;100.00
38718;BME280;24468;52.128;9.278;2024-01-16T00:53:41;99596.97;;;1.46;100.00
38718;BME280;24468;52.128;9.278;2024-01-16T00:56:07;99597.59;;;1.57;100.00
38718;BME280;24468;52.128;9.278;2024-01-16T00:58:33;99613.69;;;1.49;100.00
38718;BME280;24468;52.128;9.278;2024-01-16T01:00:58;99600.81;;;1.70;100.00
38718;BME280;24468;52.128;9.278;2024-01-16T01:03:24;99603.53;;;1.67;100.00
38718;BME280;24468;52.128;9.278;2024-01-16T01:05:49;99606.34;;;1.62;100.00
38718;BME280;24468;52.128;9.278;2024-01-16T01:08:15;99610.44;;;1.75;100.00
38718;BME280;24468;52.128;9.278;2024-01-16T01:10:40;99604.06;;;1.83;100.00
38718;BME280;24468;52.128;9.278;2024-01-16T01:13:06;99614.44;;;1.95;100.00
38718;BME280;24468;52.128;9.278;2024-01-16T01:15:31;99648.25;;;1.90;100.00
38718;BME280;24468;52.128;9.278;2024-01-16T01:17:57;99603.59;;;1.65;100.00
38718;BME280;24468;52.128;9.278;2024-01-16T01:20:23;99595.25;;;1.81;100.00
38718;BME280;24468;52.128;9.278;2024-01-16T01:22:48;99610.94;;;1.91;100.00
38718;BME280;24468;52.128;9.278;2024-01-16T01:25:14;99613.00;;;1.80;100.00
38718;BME280;24468;52.128;9.278;2024-01-16T01:27:40;99610.41;;;2.13;100.00
38718;BME280;24468;52.128;9.278;2024-01-16T01:30:09;99609.47;;;1.78;100.00
38718;BME280;24468;52.128;9.278;2024-01-16T01:32:36;99615.13;;;2.03;100.00
38718;BME280;24468;52.128;9.278;2024-01-16T01:35:01;99630.84;;;1.75;100.00
38718;BME280;24468;52.128;9.278;2024-01-16T01:37:27;99633.97;;;1.53;100.00
38718;BME280;24468;52.128;9.278;2024-01-16T01:39:52;99631.50;;;1.85;100.00
38718;BME280;24468;52.128;9.278;2024-01-16T01:42:18;99633.25;;;1.47;100.00
38718;BME280;24468;52.128;9.278;2024-01-16T01:44:43;99642.06;;;1.49;100.00
38718;BME280;24468;52.128;9.278;2024-01-16T01:47:09;99677.56;;;1.45;100.00
38718;BME280;24468;52.128;9.278;2024-01-16T01:49:36;99652.19;;;1.72;100.00
38718;BME280;24468;52.128;9.278;2024-01-16T01:52:03;99651.59;;;1.59;100.00
38718;BME280;24468;52.128;9.278;2024-01-16T01:54:29;99647.34;;;1.50;100.00
38718;BME280;24468;52.128;9.278;2024-01-16T01:56:56;99662.22;;;1.59;100.00
38718;BME280;24468;52.128;9.278;2024-01-16T01:59:23;99656.13;;;1.54;100.00
38718;BME280;24468;52.128;9.278;2024-01-16T02:01:51;99681.66;;;1.21;100.00
38718;BME280;24468;52.128;9.278;2024-01-16T02:04:19;99675.31;;;1.26;100.00
38718;BME280;24468;52.128;9.278;2024-01-16T02:06:45;99669.88;;;1.32;100.00
38718;BME280;24468;52.128;9.278;2024-01-16T02:09:12;99665.00;;;1.53;100.00
38718;BME280;24468;52.128;9.278;2024-01-16T02:11:39;99671.41;;;1.44;100.00
38718;BME280;24468;52.128;9.278;2024-01-16T02:14:05;99672.09;;;1.52;100.00
38718;BME280;24468;52.128;9.278;2024-01-16T02:16:37;99675.06;;;1.39;100.00
38718;BME280;24468;52.128;9.278;2024-01-16T02:19:04;99685.69;;;1.39;100.00
38718;BME280;24468;52.128;9.278;2024-01-16T02:21:41;99697.19;;;1.39;100.00
38718;BME280;24468;52.128;9.278;2024-01-16T02:24:10;99676.19;;;1.69;100.00
38718;BME280;24468;52.128;9.278;2024-01-16T02:26:37;99690.81;;;1.88;100.00
38718;BME280;24468;52.128;9.278;2024-01-16T02:29:03;99689.78;;;1.53;100.00
38718;BME280;24468;52.128;9.278;2024-01-16T02:31:30;99694.66;;;1.35;100.00
38718;BME280;24468;52.128;9.278;2024-01-16T02:33:56;99694.94;;;1.63;100.00
38718;BME280;24468;52.128;9.278;2024-01-16T02:36:21;99693.72;;;1.77;100.00
38718;BME280;24468;52.128;9.278;2024-01-16T02:38:47;99693.94;;;1.68;100.00
38718;BME280;24468;52.128;9.278;2024-01-16T02:41:16;99686.97;;;1.21;100.00
38718;BME280;24468;52.128;9.278;2024-01-16T02:43:43;99689.25;;;1.80;100.00
38718;BME280;24468;52.128;9.278;2024-01-16T02:46:08;99698.47;;;1.62;100.00
38718;BME280;24468;52.128;9.278;2024-01-16T02:48:35;99696.75;;;1.61;100.00
38718;BME280;24468;52.128;9.278;2024-01-16T02:51:01;99698.66;;;1.54;100.00
38718;BME280;24468;52.128;9.278;2024-01-16T02:53:26;99694.16;;;1.56;100.00
38718;BME280;24468;52.128;9.278;2024-01-16T02:55:54;99704.94;;;1.50;100.00
38718;BME280;24468;52.128;9.278;2024-01-16T02:58:20;99720.50;;;1.68;100.00
38718;BME280;24468;52.128;9.278;2024-01-16T03:00:46;99734.66;;;1.70;100.00
38718;BME280;24468;52.128;9.278;2024-01-16T03:03:12;99724.53;;;1.88;100.00
38718;BME280;24468;52.128;9.278;2024-01-16T03:05:38;99742.16;;;1.92;100.00
38718;BME280;24468;52.128;9.278;2024-01-16T03:08:05;99726.91;;;1.60;100.00
38718;BME280;24468;52.128;9.278;2024-01-16T03:10:30;99733.88;;;1.65;100.00
38718;BME280;24468;52.128;9.278;2024-01-16T03:12:56;99732.53;;;1.44;100.00
38718;BME280;24468;52.128;9.278;2024-01-16T03:15:22;99732.19;;;1.61;100.00
38718;BME280;24468;52.128;9.278;2024-01-16T03:17:48;99734.22;;;1.48;100.00
38718;BME280;24468;52.128;9.278;2024-01-16T03:20:15;99732.16;;;1.63;100.00
38718;BME280;24468;52.128;9.278;2024-01-16T03:22:41;99746.16;;;1.71;100.00
38718;BME280;24468;52.128;9.278;2024-01-16T03:25:09;99744.94;;;1.87;100.00
38718;BME280;24468;52.128;9.278;2024-01-16T03:27:34;99732.81;;;1.72;100.00
38718;BME280;24468;52.128;9.278;2024-01-16T03:30:01;99750.63;;;1.70;100.00
38718;BME280;24468;52.128;9.278;2024-01-16T03:32:27;99761.13;;;1.76;100.00
38718;BME280;24468;52.128;9.278;2024-01-16T03:34:52;99749.06;;;1.59;100.00
38718;BME280;24468;52.128;9.278;2024-01-16T03:37:18;99776.34;;;1.68;100.00
38718;BME280;24468;52.128;9.278;2024-01-16T03:39:43;99757.03;;;1.60;100.00
38718;BME280;24468;52.128;9.278;2024-01-16T03:42:10;99755.78;;;1.76;100.00
38718;BME280;24468;52.128;9.278;2024-01-16T03:44:39;99742.16;;;1.50;100.00
38718;BME280;24468;52.128;9.278;2024-01-16T03:47:06;99757.31;;;1.46;100.00
38718;BME280;24468;52.128;9.278;2024-01-16T03:49:31;99746.97;;;1.74;100.00
38718;BME280;24468;52.128;9.278;2024-01-16T03:51:57;99747.31;;;1.59;100.00
38718;BME280;24468;52.128;9.278;2024-01-16T03:54:22;99748.97;;;1.63;100.00
38718;BME280;24468;52.128;9.278;2024-01-16T03:56:48;99749.19;;;1.54;100.00
38718;BME280;24468;52.128;9.278;2024-01-16T03:59:13;99757.59;;;1.74;100.00
38718;BME280;24468;52.128;9.278;2024-01-16T04:01:39;99746.28;;;1.21;100.00
38718;BME280;24468;52.128;9.278;2024-01-16T04:04:04;99735.59;;;1.24;100.00
38718;BME280;24468;52.128;9.278;2024-01-16T04:06:33;99743.69;;;1.17;100.00
38718;BME280;24468;52.128;9.278;2024-01-16T04:08:58;99745.13;;;1.35;100.00
38718;BME280;24468;52.128;9.278;2024-01-16T04:11:24;99746.72;;;1.43;100.00
38718;BME280;24468;52.128;9.278;2024-01-16T04:13:49;99756.44;;;1.46;100.00
38718;BME280;24468;52.128;9.278;2024-01-16T04:16:15;99756.72;;;1.30;100.00
38718;BME280;24468;52.128;9.278;2024-01-16T04:18:43;99758.97;;;1.50;100.00
38718;BME280;24468;52.128;9.278;2024-01-16T04:21:09;99756.59;;;1.37;100.00
38718;BME280;24468;52.128;9.278;2024-01-16T04:23:34;99750.41;;;1.38;100.00
38718;BME280;24468;52.128;9.278;2024-01-16T04:26:00;99746.03;;;1.33;100.00
38718;BME280;24468;52.128;9.278;2024-01-16T04:28:25;99749.09;;;1.12;100.00
38718;BME280;24468;52.128;9.278;2024-01-16T04:30:51;99755.44;;;1.05;100.00
38718;BME280;24468;52.128;9.278;2024-01-16T04:33:17;99748.56;;;1.40;100.00
38718;BME280;24468;52.128;9.278;2024-01-16T04:35:43;99756.56;;;1.38;100.00
38718;BME280;24468;52.128;9.278;2024-01-16T04:38:08;99748.41;;;1.47;100.00
38718;BME280;24468;52.128;9.278;2024-01-16T04:40:34;99746.97;;;1.31;100.00
38718;BME280;24468;52.128;9.278;2024-01-16T04:43:00;99747.41;;;1.53;100.00
38718;BME280;24468;52.128;9.278;2024-01-16T04:45:25;99755.41;;;1.06;100.00
38718;BME280;24468;52.128;9.278;2024-01-16T04:47:51;99748.81;;;1.27;100.00
38718;BME280;24468;52.128;9.278;2024-01-16T04:50:18;99752.69;;;1.09;100.00
38718;BME280;24468;52.128;9.278;2024-01-16T04:52:43;99756.22;;;1.55;100.00
38718;BME280;24468;52.128;9.278;2024-01-16T04:55:09;99751.47;;;1.27;100.00
38718;BME280;24468;52.128;9.278;2024-01-16T04:57:34;99754.09;;;1.29;100.00
38718;BME280;24468;52.128;9.278;2024-01-16T05:00:00;99759.50;;;1.23;100.00
38718;BME280;24468;52.128;9.278;2024-01-16T05:02:26;99759.91;;;1.48;100.00
38718;BME280;24468;52.128;9.278;2024-01-16T05:04:51;99761.22;;;1.27;100.00
38718;BME280;24468;52.128;9.278;2024-01-16T05:07:18;99771.97;;;1.21;100.00
38718;BME280;24468;52.128;9.278;2024-01-16T05:09:46;99764.03;;;1.19;100.00
38718;BME280;24468;52.128;9.278;2024-01-16T05:12:12;99754.34;;;1.15;100.00
38718;BME280;24468;52.128;9.278;2024-01-16T05:14:38;99765.81;;;1.19;100.00
38718;BME280;24468;52.128;9.278;2024-01-16T05:17:04;99761.81;;;0.93;100.00
38718;BME280;24468;52.128;9.278;2024-01-16T05:19:29;99754.13;;;1.26;100.00
38718;BME280;24468;52.128;9.278;2024-01-16T05:21:55;99762.28;;;1.18;100.00
38718;BME280;24468;52.128;9.278;2024-01-16T05:24:20;99762.22;;;1.21;100.00
38718;BME280;24468;52.128;9.278;2024-01-16T05:26:46;99756.78;;;1.26;100.00
38718;BME280;24468;52.128;9.278;2024-01-16T05:29:11;99756.31;;;1.04;100.00
38718;BME280;24468;52.128;9.278;2024-01-16T05:31:41;99760.56;;;1.14;100.00
38718;BME280;24468;52.128;9.278;2024-01-16T05:34:08;99754.13;;;1.27;100.00
38718;BME280;24468;52.128;9.278;2024-01-16T05:36:33;99764.03;;;1.19;100.00
38718;BME280;24468;52.128;9.278;2024-01-16T05:38:59;99759.81;;;1.07;100.00
38718;BME280;24468;52.128;9.278;2024-01-16T05:41:24;99768.41;;;1.20;100.00
38718;BME280;24468;52.128;9.278;2024-01-16T05:43:50;99755.66;;;1.39;100.00
38718;BME280;24468;52.128;9.278;2024-01-16T05:46:15;99766.94;;;1.50;100.00
38718;BME280;24468;52.128;9.278;2024-01-16T05:48:41;99767.69;;;1.12;100.00
38718;BME280;24468;52.128;9.278;2024-01-16T05:51:06;99770.50;;;1.51;100.00
38718;BME280;24468;52.128;9.278;2024-01-16T05:53:32;99762.69;;;1.42;100.00
38718;BME280;24468;52.128;9.278;2024-01-16T05:55:57;99773.03;;;1.57;100.00
38718;BME280;24468;52.128;9.278;2024-01-16T05:58:23;99774.53;;;1.25;100.00
38718;BME280;24468;52.128;9.278;2024-01-16T06:00:48;99767.34;;;1.30;100.00
38718;BME280;24468;52.128;9.278;2024-01-16T06:03:14;99766.06;;;1.51;100.00
38718;BME280;24468;52.128;9.278;2024-01-16T06:05:40;99762.19;;;1.68;100.00
38718;BME280;24468;52.128;9.278;2024-01-16T06:08:06;99754.03;;;1.32;100.00
38718;BME280;24468;52.128;9.278;2024-01-16T06:10:31;99756.56;;;1.38;100.00
38718;BME280;24468;52.128;9.278;2024-01-16T06:12:57;99766.13;;;1.02;100.00
38718;BME280;24468;52.128;9.278;2024-01-16T06:15:22;99764.88;;;1.20;100.00
38718;BME280;24468;52.128;9.278;2024-01-16T06:17:48;99764.34;;;1.49;100.00
38718;BME280;24468;52.128;9.278;2024-01-16T06:20:14;99763.69;;;1.38;100.00
38718;BME280;24468;52.128;9.278;2024-01-16T06:22:40;99763.88;;;1.27;100.00
38718;BME280;24468;52.128;9.278;2024-01-16T06:25:05;99765.97;;;1.09;100.00
38718;BME280;24468;52.128;9.278;2024-01-16T06:27:31;99766.75;;;1.16;100.00
38718;BME280;24468;52.128;9.278;2024-01-16T06:29:58;99769.22;;;1.25;100.00
38718;BME280;24468;52.128;9.278;2024-01-16T06:32:23;99773.00;;;1.12;100.00
38718;BME280;24468;52.128;9.278;2024-01-16T06:34:49;99769.81;;;1.40;100.00
38718;BME280;24468;52.128;9.278;2024-01-16T06:37:14;99769.34;;;1.18;100.00
38718;BME280;24468;52.128;9.278;2024-01-16T06:39:40;99780.38;;;0.96;100.00
38718;BME280;24468;52.128;9.278;2024-01-16T06:42:05;99767.31;;;0.84;100.00
38718;BME280;24468;52.128;9.278;2024-01-16T06:44:31;99782.25;;;0.91;100.00
38718;BME280;24468;52.128;9.278;2024-01-16T06:46:57;99774.97;;;1.01;100.00
38718;BME280;24468;52.128;9.278;2024-01-16T06:49:22;99762.91;;;1.31;100.00
38718;BME280;24468;52.128;9.278;2024-01-16T06:51:48;99773.22;;;1.00;100.00
38718;BME280;24468;52.128;9.278;2024-01-16T06:54:13;99774.38;;;1.35;100.00
38718;BME280;24468;52.128;9.278;2024-01-16T06:56:39;99780.75;;;1.24;100.00
38718;BME280;24468;52.128;9.278;2024-01-16T06:59:04;99783.38;;;1.26;100.00
38718;BME280;24468;52.128;9.278;2024-01-16T07:01:30;99786.75;;;1.36;100.00
38718;BME280;24468;52.128;9.278;2024-01-16T07:03:56;99790.88;;;1.50;100.00
38718;BME280;24468;52.128;9.278;2024-01-16T07:06:21;99800.50;;;1.09;100.00
38718;BME280;24468;52.128;9.278;2024-01-16T07:08:47;99787.13;;;1.14;100.00
38718;BME280;24468;52.128;9.278;2024-01-16T07:11:12;99788.19;;;1.05;100.00
38718;BME280;24468;52.128;9.278;2024-01-16T07:13:40;99786.97;;;1.23;100.00
38718;BME280;24468;52.128;9.278;2024-01-16T07:16:09;99789.22;;;0.97;100.00
38718;BME280;24468;52.128;9.278;2024-01-16T07:18:36;99796.94;;;1.10;100.00
38718;BME280;24468;52.128;9.278;2024-01-16T07:21:02;99796.84;;;1.17;100.00
38718;BME280;24468;52.128;9.278;2024-01-16T07:23:28;99803.22;;;1.06;100.00
38718;BME280;24468;52.128;9.278;2024-01-16T07:25:54;99791.09;;;0.90;100.00
38718;BME280;24468;52.128;9.278;2024-01-16T07:28:19;99802.56;;;0.94;100.00
38718;BME280;24468;52.128;9.278;2024-01-16T07:30:47;99794.94;;;0.72;100.00
38718;BME280;24468;52.128;9.278;2024-01-16T07:33:13;99787.47;;;0.96;100.00
38718;BME280;24468;52.128;9.278;2024-01-16T07:35:39;99803.34;;;0.99;100.00
38718;BME280;24468;52.128;9.278;2024-01-16T07:38:06;99807.25;;;0.78;100.00
38718;BME280;24468;52.128;9.278;2024-01-16T07:40:32;99794.69;;;0.87;100.00
38718;BME280;24468;52.128;9.278;2024-01-16T07:42:58;99793.69;;;0.93;100.00
38718;BME280;24468;52.128;9.278;2024-01-16T07:45:24;99786.72;;;0.87;100.00
38718;BME280;24468;52.128;9.278;2024-01-16T07:47:49;99808.44;;;1.13;100.00
38718;BME280;24468;52.128;9.278;2024-01-16T07:50:15;99806.72;;;1.07;100.00
38718;BME280;24468;52.128;9.278;2024-01-16T07:52:41;99808.56;;;1.03;100.00
38718;BME280;24468;52.128;9.278;2024-01-16T07:55:06;99810.38;;;1.03;100.00
38718;BME280;24468;52.128;9.278;2024-01-16T07:57:32;99815.41;;;1.18;100.00
38718;BME280;24468;52.128;9.278;2024-01-16T07:59:58;99810.84;;;1.25;100.00
38718;BME280;24468;52.128;9.278;2024-01-16T08:02:33;99811.91;;;1.15;100.00
38718;BME280;24468;52.128;9.278;2024-01-16T08:05:03;99826.56;;;1.37;100.00
38718;BME280;24468;52.128;9.278;2024-01-16T08:07:29;99819.41;;;1.86;100.00
38718;BME280;24468;52.128;9.278;2024-01-16T08:09:54;99822.03;;;1.44;100.00
38718;BME280;24468;52.128;9.278;2024-01-16T08:12:20;99825.19;;;1.16;100.00
38718;BME280;24468;52.128;9.278;2024-01-16T08:14:45;99821.91;;;1.02;100.00
38718;BME280;24468;52.128;9.278;2024-01-16T08:17:11;99823.66;;;1.03;100.00
38718;BME280;24468;52.128;9.278;2024-01-16T08:19:36;99832.47;;;1.03;100.00
38718;BME280;24468;52.128;9.278;2024-01-16T08:22:02;99822.09;;;0.89;100.00
38718;BME280;24468;52.128;9.278;2024-01-16T08:24:28;99825.78;;;0.82;100.00
38718;BME280;24468;52.128;9.278;2024-01-16T08:26:53;99816.53;;;1.05;100.00
38718;BME280;24468;52.128;9.278;2024-01-16T08:29:19;99828.91;;;1.06;100.00
38718;BME280;24468;52.128;9.278;2024-01-16T08:31:44;99826.81;;;1.25;100.00
38718;BME280;24468;52.128;9.278;2024-01-16T08:34:10;99834.63;;;1.32;100.00
38718;BME280;24468;52.128;9.278;2024-01-16T08:36:35;99821.03;;;1.49;100.00
38718;BME280;24468;52.128;9.278;2024-01-16T08:39:01;99829.41;;;1.28;100.00
38718;BME280;24468;52.128;9.278;2024-01-16T08:41:26;99820.03;;;1.57;100.00
38718;BME280;24468;52.128;9.278;2024-01-16T08:43:52;99834.03;;;1.65;100.00
38718;BME280;24468;52.128;9.278;2024-01-16T08:46:18;99825.47;;;1.49;100.00
38718;BME280;24468;52.128;9.278;2024-01-16T08:48:46;99825.03;;;1.72;100.00
38718;BME280;24468;52.128;9.278;2024-01-16T08:51:12;99817.38;;;1.55;100.00
38718;BME280;24468;52.128;9.278;2024-01-16T08:53:38;99826.72;;;1.76;100.00
38718;BME280;24468;52.128;9.278;2024-01-16T08:56:03;99830.84;;;1.46;100.00
38718;BME280;24468;52.128;9.278;2024-01-16T08:58:32;99828.81;;;1.59;100.00
38718;BME280;24468;52.128;9.278;2024-01-16T09:01:03;99829.94;;;1.92;100.00
38718;BME280;24468;52.128;9.278;2024-01-16T09:03:31;99831.84;;;2.27;100.00
38718;BME280;24468;52.128;9.278;2024-01-16T09:05:57;99831.44;;;2.05;100.00
38718;BME280;24468;52.128;9.278;2024-01-16T09:08:22;99837.44;;;1.71;100.00
38718;BME280;24468;52.128;9.278;2024-01-16T09:10:48;99825.88;;;1.74;100.00
38718;BME280;24468;52.128;9.278;2024-01-16T09:13:13;99824.84;;;1.81;100.00
38718;BME280;24468;52.128;9.278;2024-01-16T09:15:39;99815.09;;;1.80;100.00
38718;BME280;24468;52.128;9.278;2024-01-16T09:18:05;99823.28;;;2.13;100.00
38718;BME280;24468;52.128;9.278;2024-01-16T09:20:31;99814.22;;;1.80;100.00
38718;BME280;24468;52.128;9.278;2024-01-16T09:22:57;99819.28;;;1.92;100.00
38718;BME280;24468;52.128;9.278;2024-01-16T09:25:22;99817.91;;;1.74;100.00
38718;BME280;24468;52.128;9.278;2024-01-16T09:27:50;99817.44;;;1.52;100.00
38718;BME280;24468;52.128;9.278;2024-01-16T09:30:16;99819.50;;;1.38;100.00
38718;BME280;24468;52.128;9.278;2024-01-16T09:32:42;99823.28;;;1.71;100.00
38718;BME280;24468;52.128;9.278;2024-01-16T09:35:08;99819.47;;;2.25;100.00
38718;BME280;24468;52.128;9.278;2024-01-16T09:37:35;99824.94;;;1.76;100.00
38718;BME280;24468;52.128;9.278;2024-01-16T09:40:00;99827.50;;;1.81;100.00
38718;BME280;24468;52.128;9.278;2024-01-16T09:42:27;99836.09;;;1.95;100.00
38718;BME280;24468;52.128;9.278;2024-01-16T09:44:55;99827.25;;;1.92;100.00
38718;BME280;24468;52.128;9.278;2024-01-16T09:47:21;99822.81;;;1.94;100.00
38718;BME280;24468;52.128;9.278;2024-01-16T09:49:47;99820.72;;;2.08;100.00
38718;BME280;24468;52.128;9.278;2024-01-16T09:52:14;99825.56;;;1.89;100.00
38718;BME280;24468;52.128;9.278;2024-01-16T09:54:40;99825.03;;;1.72;100.00
38718;BME280;24468;52.128;9.278;2024-01-16T09:57:07;99830.31;;;1.73;100.00
38718;BME280;24468;52.128;9.278;2024-01-16T09:59:36;99826.44;;;1.90;100.00
38718;BME280;24468;52.128;9.278;2024-01-16T10:02:02;99834.41;;;2.32;100.00
38718;BME280;24468;52.128;9.278;2024-01-16T10:04:33;99830.34;;;1.72;100.00
38718;BME280;24468;52.128;9.278;2024-01-16T10:07:01;99833.31;;;1.57;100.00
38718;BME280;24468;52.128;9.278;2024-01-16T10:09:27;99830.19;;;1.81;100.00
38718;BME280;24468;52.128;9.278;2024-01-16T10:11:54;99830.38;;;1.70;100.00
38718;BME280;24468;52.128;9.278;2024-01-16T10:14:20;99842.06;;;2.07;100.00
38718;BME280;24468;52.128;9.278;2024-01-16T10:16:59;99841.28;;;2.00;100.00
38718;BME280;24468;52.128;9.278;2024-01-16T10:19:29;99842.50;;;1.84;100.00
38718;BME280;24468;52.128;9.278;2024-01-16T10:22:07;99844.97;;;2.36;100.00
38718;BME280;24468;52.128;9.278;2024-01-16T10:24:32;99833.84;;;1.74;100.00
38718;BME280;24468;52.128;9.278;2024-01-16T10:27:01;99843.84;;;2.06;100.00
38718;BME280;24468;52.128;9.278;2024-01-16T10:29:31;99842.50;;;1.84;100.00
38718;BME280;24468;52.128;9.278;2024-01-16T10:31:58;99841.63;;;1.83;100.00
38718;BME280;24468;52.128;9.278;2024-01-16T10:34:24;99850.63;;;1.77;100.00
38718;BME280;24468;52.128;9.278;2024-01-16T10:36:52;99840.34;;;2.04;100.00
38718;BME280;24468;52.128;9.278;2024-01-16T10:39:23;99842.47;;;1.87;100.00
38718;BME280;24468;52.128;9.278;2024-01-16T10:41:57;99844.88;;;1.99;100.00
38718;BME280;24468;52.128;9.278;2024-01-16T10:44:23;99843.72;;;1.67;100.00
38718;BME280;24468;52.128;9.278;2024-01-16T10:46:48;99836.66;;;1.66;100.00
38718;BME280;24468;52.128;9.278;2024-01-16T10:49:14;99856.25;;;1.62;100.00
38718;BME280;24468;52.128;9.278;2024-01-16T10:51:43;99842.75;;;1.71;100.00
38718;BME280;24468;52.128;9.278;2024-01-16T10:54:13;99828.00;;;1.57;100.00
38718;BME280;24468;52.128;9.278;2024-01-16T10:56:45;99849.81;;;1.74;100.00
38718;BME280;24468;52.128;9.278;2024-01-16T10:59:25;99854.78;;;1.91;100.00
38718;BME280;24468;52.128;9.278;2024-01-16T11:01:59;99852.88;;;1.97;100.00
38718;BME280;24468;52.128;9.278;2024-01-16T11:04:27;99853.16;;;1.84;100.00
38718;BME280;24468;52.128;9.278;2024-01-16T11:06:54;99844.50;;;2.17;100.00
38718;BME280;24468;52.128;9.278;2024-01-16T11:09:20;99846.16;;;1.80;100.00
38718;BME280;24468;52.128;9.278;2024-01-16T11:11:47;99858.31;;;1.93;100.00
38718;BME280;24468;52.128;9.278;2024-01-16T11:14:16;99844.03;;;1.50;100.00
38718;BME280;24468;52.128;9.278;2024-01-16T11:16:42;99840.63;;;1.89;100.00
38718;BME280;24468;52.128;9.278;2024-01-16T11:19:09;99836.09;;;1.94;100.00
38718;BME280;24468;52.128;9.278;2024-01-16T11:21:36;99834.53;;;1.84;100.00
38718;BME280;24468;52.128;9.278;2024-01-16T11:24:03;99840.34;;;2.04;100.00
38718;BME280;24468;52.128;9.278;2024-01-16T11:26:32;99821.44;;;1.74;100.00
38718;BME280;24468;52.128;9.278;2024-01-16T11:29:00;99833.19;;;2.06;100.00
38718;BME280;24468;52.128;9.278;2024-01-16T11:31:33;99832.06;;;1.74;100.00
38718;BME280;24468;52.128;9.278;2024-01-16T11:34:00;99830.84;;;2.33;100.00
38718;BME280;24468;52.128;9.278;2024-01-16T11:36:56;99831.34;;;2.50;100.00
38718;BME280;24468;52.128;9.278;2024-01-16T11:39:25;99832.84;;;2.23;100.00
38718;BME280;24468;52.128;9.278;2024-01-16T11:41:55;99832.91;;;2.20;100.00
38718;BME280;24468;52.128;9.278;2024-01-16T11:44:45;99841.06;;;2.11;100.00
38718;BME280;24468;52.128;9.278;2024-01-16T11:47:20;99845.03;;;2.33;100.00
38718;BME280;24468;52.128;9.278;2024-01-16T11:49:48;99842.63;;;2.21;100.00
38718;BME280;24468;52.128;9.278;2024-01-16T11:52:14;99846.31;;;2.54;100.00
38718;BME280;24468;52.128;9.278;2024-01-16T11:54:41;99817.03;;;2.14;100.00
38718;BME280;24468;52.128;9.278;2024-01-16T11:57:45;99839.34;;;2.50;100.00
38718;BME280;24468;52.128;9.278;2024-01-16T12:00:21;99851.31;;;2.29;100.00
38718;BME280;24468;52.128;9.278;2024-01-16T12:02:56;99852.06;;;2.36;100.00
38718;BME280;24468;52.128;9.278;2024-01-16T12:05:22;99837.38;;;2.18;100.00
38718;BME280;24468;52.128;9.278;2024-01-16T12:07:50;99842.91;;;2.09;100.00
38718;BME280;24468;52.128;9.278;2024-01-16T12:10:17;99839.25;;;1.69;100.00
38718;BME280;24468;52.128;9.278;2024-01-16T12:12:43;99842.84;;;2.10;100.00
38718;BME280;24468;52.128;9.278;2024-01-16T12:15:17;99831.03;;;2.23;100.00
38718;BME280;24468;52.128;9.278;2024-01-16T12:18:02;99837.25;;;2.24;100.00
38718;BME280;24468;52.128;9.278;2024-01-16T12:20:31;99844.84;;;2.41;100.00
38718;BME280;24468;52.128;9.278;2024-01-16T12:23:01;99841.72;;;2.22;100.00
38718;BME280;24468;52.128;9.278;2024-01-16T12:25:29;99835.50;;;2.21;100.00
38718;BME280;24468;52.128;9.278;2024-01-16T12:28:03;99834.97;;;2.06;100.00
38718;BME280;24468;52.128;9.278;2024-01-16T12:30:37;99825.50;;;2.33;100.00
38718;BME280;24468;52.128;9.278;2024-01-16T12:33:11;99833.91;;;2.14;100.00
38718;BME280;24468;52.128;9.278;2024-01-16T12:35:43;99848.66;;;1.87;100.00
38718;BME280;24468;52.128;9.278;2024-01-16T12:38:12;99835.56;;;2.20;100.00
38718;BME280;24468;52.128;9.278;2024-01-16T12:41:06;99831.75;;;2.32;100.00
38718;BME280;24468;52.128;9.278;2024-01-16T12:43:33;99831.56;;;1.99;100.00
38718;BME280;24468;52.128;9.278;2024-01-16T12:45:59;99817.31;;;2.03;100.00
38718;BME280;24468;52.128;9.278;2024-01-16T12:48:25;99823.28;;;2.13;100.00
38718;BME280;24468;52.128;9.278;2024-01-16T12:50:58;99818.34;;;1.96;100.00
38718;BME280;24468;52.128;9.278;2024-01-16T12:53:24;99796.47;;;1.82;100.00
38718;BME280;24468;52.128;9.278;2024-01-16T12:55:58;99794.25;;;2.02;100.00
38718;BME280;24468;52.128;9.278;2024-01-16T12:58:36;99799.72;;;1.96;100.00